Time;durP1;ratioP1;P1;durP2;ratioP2;P2;SDS_P1;SDS_P2;PMS_P1;PMS_P2;Temp;Humidity;BMP_temperature;BMP_pressure;BME280_temperature;BME280_humidity;BME280_pressure;Samples;Min_cycle;Max_cycle;Signal;HPM_P1;HPM_P2
2021/10/20 00:00:24;;;;;;;;;;;8.40;1.00;;;;;;5028554;28;19920;-72
2021/10/20 00:02:50;;;;;;;;;;;8.40;1.00;;;;;;5028233;28;19913;-69
2021/10/20 00:05:18;;;;;;;;;;;8.30;1.00;;;;;;5029536;28;19908;-70
2021/10/20 00:07:44;;;;;;;;;;;8.30;1.00;;;;;;5045134;28;20095;-71
2021/10/20 00:10:10;;;;;;;;;;;8.30;1.00;;;;;;5052908;28;20321;-73
2021/10/20 00:12:36;;;;;;;;;;;8.40;1.00;;;;;;5052108;28;19952;-69
2021/10/20 00:15:04;;;;;;;;;;;8.40;1.00;;;;;;5052621;28;20340;-70
2021/10/20 00:17:30;;;;;;;;;;;8.40;1.00;;;;;;5052500;28;19908;-70
2021/10/20 00:20:00;;;;;;;;;;;8.40;1.00;;;;;;5053034;28;19909;-71
2021/10/20 00:22:25;;;;;;;;;;;8.40;1.00;;;;;;5051986;28;19921;-69
2021/10/20 00:24:51;;;;;;;;;;;8.30;1.00;;;;;;5041898;28;19913;-70
2021/10/20 00:27:16;;;;;;;;;;;8.40;1.00;;;;;;5033476;28;20289;-69
2021/10/20 00:29:42;;;;;;;;;;;8.30;1.00;;;;;;5037300;28;19917;-69
2021/10/20 00:32:07;;;;;;;;;;;8.30;1.00;;;;;;5031277;28;19909;-69
2021/10/20 00:34:33;;;;;;;;;;;8.30;1.00;;;;;;5032731;28;19935;-69
2021/10/20 00:36:58;;;;;;;;;;;8.30;1.00;;;;;;5032862;28;19916;-71
2021/10/20 00:39:24;;;;;;;;;;;8.30;1.00;;;;;;5033012;28;19909;-68
2021/10/20 00:41:53;;;;;;;;;;;8.20;1.00;;;;;;5032158;28;19909;-69
2021/10/20 00:44:18;;;;;;;;;;;8.20;1.00;;;;;;5031396;28;19909;-68
2021/10/20 00:46:44;;;;;;;;;;;8.20;1.00;;;;;;5031863;28;20330;-69
2021/10/20 00:49:10;;;;;;;;;;;8.10;1.00;;;;;;5032410;28;19913;-69
2021/10/20 00:51:35;;;;;;;;;;;8.10;1.00;;;;;;5032880;28;20250;-69
2021/10/20 00:54:01;;;;;;;;;;;8.10;1.00;;;;;;5032123;28;19940;-71
2021/10/20 00:56:27;;;;;;;;;;;8.10;1.00;;;;;;5032032;28;20358;-69
2021/10/20 00:58:52;;;;;;;;;;;8.00;1.00;;;;;;5032306;28;19924;-69
2021/10/20 01:01:18;;;;;;;;;;;8.00;1.00;;;;;;5028761;28;20282;-68
2021/10/20 01:03:47;;;;;;;;;;;8.00;1.00;;;;;;5031674;28;19909;-69
2021/10/20 01:06:13;;;;;;;;;;;8.00;1.00;;;;;;5013759;28;19964;-68
2021/10/20 01:08:39;;;;;;;;;;;8.00;1.00;;;;;;5031506;28;20055;-69
2021/10/20 01:11:04;;;;;;;;;;;7.90;1.00;;;;;;5031895;28;19920;-68
2021/10/20 01:13:30;;;;;;;;;;;7.90;1.00;;;;;;5030470;28;19910;-69
2021/10/20 01:15:56;;;;;;;;;;;7.90;1.00;;;;;;5030542;28;19913;-68
2021/10/20 01:18:22;;;;;;;;;;;7.90;1.00;;;;;;5031240;28;19920;-68
2021/10/20 01:20:51;;;;;;;;;;;7.90;1.00;;;;;;5031522;28;19909;-70
2021/10/20 01:23:20;;;;;;;;;;;7.90;1.00;;;;;;5031234;28;20302;-68
2021/10/20 01:25:45;;;;;;;;;;;7.80;1.00;;;;;;5031872;28;19971;-68
2021/10/20 01:28:11;;;;;;;;;;;7.80;1.00;;;;;;5036180;28;20429;-68
2021/10/20 01:30:36;;;;;;;;;;;7.80;1.00;;;;;;5038679;28;20289;-69
2021/10/20 01:33:02;;;;;;;;;;;7.70;1.00;;;;;;5048645;28;19948;-71
2021/10/20 01:35:27;;;;;;;;;;;7.70;1.00;;;;;;5051822;28;19908;-69
2021/10/20 01:37:53;;;;;;;;;;;7.70;1.00;;;;;;5052023;28;19963;-69
2021/10/20 01:40:18;;;;;;;;;;;7.70;1.00;;;;;;5051144;28;19996;-69
2021/10/20 01:42:44;;;;;;;;;;;7.70;1.00;;;;;;5039689;28;19956;-69
2021/10/20 01:45:10;;;;;;;;;;;7.70;1.00;;;;;;5030971;28;20535;-72
2021/10/20 01:47:36;;;;;;;;;;;7.70;1.00;;;;;;5029684;28;20032;-69
2021/10/20 01:50:04;;;;;;;;;;;7.70;1.00;;;;;;5031494;28;20035;-68
2021/10/20 01:52:30;;;;;;;;;;;7.70;1.00;;;;;;5030556;28;19943;-68
2021/10/20 01:54:55;;;;;;;;;;;7.60;1.00;;;;;;5030682;28;20046;-70
2021/10/20 01:57:20;;;;;;;;;;;7.60;1.00;;;;;;5031213;28;19920;-71
2021/10/20 01:59:46;;;;;;;;;;;7.60;1.00;;;;;;5030242;28;19952;-67
2021/10/20 02:02:18;;;;;;;;;;;7.60;1.00;;;;;;5029553;28;19929;-69
2021/10/20 02:04:44;;;;;;;;;;;7.60;1.00;;;;;;5031213;28;20340;-69
2021/10/20 02:07:09;;;;;;;;;;;7.70;1.00;;;;;;5030554;28;19913;-69
2021/10/20 02:09:35;;;;;;;;;;;7.70;1.00;;;;;;5030757;28;19929;-72
2021/10/20 02:12:00;;;;;;;;;;;7.70;1.00;;;;;;5030238;28;19963;-69
2021/10/20 02:14:26;;;;;;;;;;;7.70;1.00;;;;;;5030273;28;19972;-70
2021/10/20 02:16:51;;;;;;;;;;;7.70;1.00;;;;;;5029682;28;20289;-70
2021/10/20 02:19:16;;;;;;;;;;;7.70;1.00;;;;;;5030826;28;20001;-68
2021/10/20 02:21:42;;;;;;;;;;;7.70;1.00;;;;;;5030660;28;20370;-69
2021/10/20 02:24:07;;;;;;;;;;;7.70;1.00;;;;;;5029842;28;19999;-68
2021/10/20 02:26:33;;;;;;;;;;;7.70;1.00;;;;;;5030021;28;19955;-68
2021/10/20 02:28:59;;;;;;;;;;;7.70;1.00;;;;;;5034236;28;19920;-70
2021/10/20 02:31:24;;;;;;;;;;;7.70;1.00;;;;;;5028851;28;19917;-68
2021/10/20 02:33:50;;;;;;;;;;;7.70;1.00;;;;;;5029568;28;19980;-71
2021/10/20 02:36:15;;;;;;;;;;;7.70;1.00;;;;;;5030236;28;19947;-68
2021/10/20 02:38:41;;;;;;;;;;;7.70;1.00;;;;;;5030083;28;19914;-68
2021/10/20 02:41:06;;;;;;;;;;;7.60;1.00;;;;;;5029968;28;19924;-68
2021/10/20 02:43:35;;;;;;;;;;;7.60;1.00;;;;;;5028853;28;20056;-70
2021/10/20 02:46:01;;;;;;;;;;;7.50;1.00;;;;;;5029347;28;19913;-68
2021/10/20 02:48:26;;;;;;;;;;;7.50;1.00;;;;;;5029597;28;20326;-69
2021/10/20 02:50:52;;;;;;;;;;;7.50;1.00;;;;;;5030067;28;20219;-68
2021/10/20 02:53:17;;;;;;;;;;;7.50;1.00;;;;;;5028703;28;19948;-69
2021/10/20 02:55:43;;;;;;;;;;;7.40;1.00;;;;;;5029579;28;19937;-69
2021/10/20 02:58:08;;;;;;;;;;;7.40;1.00;;;;;;5029265;28;20005;-69
2021/10/20 03:00:34;;;;;;;;;;;7.40;1.00;;;;;;5028835;28;19913;-68
2021/10/20 03:02:59;;;;;;;;;;;7.30;1.00;;;;;;5028411;28;20063;-69
2021/10/20 03:05:25;;;;;;;;;;;7.30;1.00;;;;;;5034112;28;20387;-69
2021/10/20 03:07:52;;;;;;;;;;;7.30;1.00;;;;;;5041159;28;19970;-69
2021/10/20 03:10:17;;;;;;;;;;;7.20;1.00;;;;;;5031336;28;20055;-68
2021/10/20 03:12:43;;;;;;;;;;;7.20;1.00;;;;;;5048358;28;20004;-70
2021/10/20 03:15:09;;;;;;;;;;;7.20;1.00;;;;;;5048855;28;19919;-69
2021/10/20 03:17:35;;;;;;;;;;;7.20;1.00;;;;;;5048809;28;20308;-70
2021/10/20 03:20:00;;;;;;;;;;;7.10;1.00;;;;;;5049173;28;19913;-69
2021/10/20 03:22:26;;;;;;;;;;;7.10;1.00;;;;;;5048888;28;20353;-68
2021/10/20 03:24:51;;;;;;;;;;;7.10;1.00;;;;;;5037876;28;20003;-69
2021/10/20 03:27:19;;;;;;;;;;;7.10;1.00;;;;;;5029128;28;19909;-72
2021/10/20 03:29:44;;;;;;;;;;;7.10;1.00;;;;;;5033268;28;20012;-68
2021/10/20 03:32:10;;;;;;;;;;;7.10;1.00;;;;;;5027812;28;20654;-68
2021/10/20 03:34:35;;;;;;;;;;;7.10;1.00;;;;;;5029470;28;19910;-71
2021/10/20 03:37:01;;;;;;;;;;;7.10;1.00;;;;;;5029547;28;19913;-70
2021/10/20 03:39:26;;;;;;;;;;;7.10;1.00;;;;;;5028800;28;19913;-69
2021/10/20 03:41:52;;;;;;;;;;;7.10;1.00;;;;;;5028354;28;19951;-68
2021/10/20 03:44:17;;;;;;;;;;;7.10;1.00;;;;;;5028478;28;19909;-69
2021/10/20 03:46:43;;;;;;;;;;;7.10;1.00;;;;;;5028490;28;19913;-69
2021/10/20 03:49:08;;;;;;;;;;;7.20;1.00;;;;;;5029221;28;20019;-69
2021/10/20 03:51:33;;;;;;;;;;;7.20;1.00;;;;;;5028821;28;19913;-70
2021/10/20 03:53:59;;;;;;;;;;;7.20;1.00;;;;;;5028476;28;19909;-68
2021/10/20 03:56:24;;;;;;;;;;;7.20;1.00;;;;;;5029164;28;20254;-69
2021/10/20 03:58:50;;;;;;;;;;;7.30;1.00;;;;;;5028447;28;19910;-69
2021/10/20 04:01:15;;;;;;;;;;;7.30;1.00;;;;;;5028106;28;19910;-70
2021/10/20 04:03:41;;;;;;;;;;;7.20;1.00;;;;;;5027833;28;19913;-68
2021/10/20 04:06:06;;;;;;;;;;;7.20;1.00;;;;;;5029046;28;19952;-68
2021/10/20 04:08:32;;;;;;;;;;;7.10;1.00;;;;;;5028912;28;19925;-70
2021/10/20 04:10:57;;;;;;;;;;;7.10;1.00;;;;;;5028718;28;19912;-68
2021/10/20 04:13:23;;;;;;;;;;;7.00;1.00;;;;;;5027678;28;19909;-69
2021/10/20 04:15:49;;;;;;;;;;;7.00;1.00;;;;;;5027665;28;19924;-69
2021/10/20 04:18:15;;;;;;;;;;;7.10;1.00;;;;;;5028488;28;19909;-69
2021/10/20 04:20:40;;;;;;;;;;;7.00;1.00;;;;;;5028664;28;19963;-69
2021/10/20 04:23:06;;;;;;;;;;;7.00;1.00;;;;;;5027952;28;19913;-68
2021/10/20 04:25:31;;;;;;;;;;;7.10;1.00;;;;;;5028673;28;19967;-68
2021/10/20 04:27:57;;;;;;;;;;;7.10;1.00;;;;;;5032689;28;19915;-69
2021/10/20 04:30:23;;;;;;;;;;;7.20;1.00;;;;;;5035979;28;20056;-69
2021/10/20 04:32:49;;;;;;;;;;;7.30;1.00;;;;;;5032741;28;19909;-69
2021/10/20 04:35:14;;;;;;;;;;;7.30;1.00;;;;;;5036552;28;19915;-71
2021/10/20 04:37:40;;;;;;;;;;;7.30;1.00;;;;;;5047320;28;19919;-68
2021/10/20 04:40:07;;;;;;;;;;;7.30;1.00;;;;;;5048134;28;19984;-70
2021/10/20 04:42:33;;;;;;;;;;;7.30;1.00;;;;;;5038850;28;19941;-69
2021/10/20 04:44:59;;;;;;;;;;;7.30;1.00;;;;;;5028291;28;19924;-69
2021/10/20 04:47:25;;;;;;;;;;;7.30;1.00;;;;;;5028171;28;20019;-69
2021/10/20 04:49:50;;;;;;;;;;;7.30;1.00;;;;;;5028185;28;19917;-71
2021/10/20 04:52:16;;;;;;;;;;;7.30;1.00;;;;;;5030705;28;19917;-69
2021/10/20 04:54:42;;;;;;;;;;;7.30;1.00;;;;;;5031826;28;19913;-70
2021/10/20 04:57:08;;;;;;;;;;;7.30;1.00;;;;;;5031936;28;20394;-68
2021/10/20 04:59:34;;;;;;;;;;;7.30;1.00;;;;;;5031216;28;19944;-71
2021/10/20 05:02:02;;;;;;;;;;;7.30;1.00;;;;;;5030930;28;19924;-71
2021/10/20 05:04:29;;;;;;;;;;;7.30;1.00;;;;;;5024710;28;19960;-69
2021/10/20 05:06:54;;;;;;;;;;;7.30;1.00;;;;;;5023044;28;19967;-70
2021/10/20 05:09:20;;;;;;;;;;;7.20;1.00;;;;;;5031625;28;20324;-70
2021/10/20 05:11:45;;;;;;;;;;;7.20;1.00;;;;;;5038699;28;20405;-69
2021/10/20 05:14:11;;;;;;;;;;;7.10;1.00;;;;;;5029768;28;19917;-70
2021/10/20 05:16:36;;;;;;;;;;;7.10;1.00;;;;;;5030105;28;20017;-70
2021/10/20 05:19:02;;;;;;;;;;;7.00;1.00;;;;;;5031999;28;19917;-70
2021/10/20 05:21:27;;;;;;;;;;;7.00;1.00;;;;;;5031124;28;20516;-71
2021/10/20 05:23:53;;;;;;;;;;;7.00;1.00;;;;;;5031478;28;20012;-71
2021/10/20 05:26:19;;;;;;;;;;;7.10;1.00;;;;;;5030522;28;19913;-71
2021/10/20 05:28:44;;;;;;;;;;;7.10;1.00;;;;;;5030311;28;19917;-72
2021/10/20 05:31:10;;;;;;;;;;;7.10;1.00;;;;;;5027024;28;21521;-73
2021/10/20 05:33:35;;;;;;;;;;;7.10;1.00;;;;;;5027047;28;20266;-70
2021/10/20 05:36:01;;;;;;;;;;;7.10;1.00;;;;;;5028282;28;19964;-70
2021/10/20 05:38:26;;;;;;;;;;;7.10;1.00;;;;;;5027402;28;19971;-69
2021/10/20 05:40:52;;;;;;;;;;;7.20;1.00;;;;;;5028006;28;20044;-71
2021/10/20 05:43:19;;;;;;;;;;;7.20;1.00;;;;;;5026905;28;20382;-71
2021/10/20 05:45:45;;;;;;;;;;;7.20;1.00;;;;;;5027257;28;19963;-70
2021/10/20 05:48:10;;;;;;;;;;;7.20;1.00;;;;;;5027633;28;20103;-71
2021/10/20 05:50:36;;;;;;;;;;;7.20;1.00;;;;;;5027729;28;20011;-70
2021/10/20 05:53:01;;;;;;;;;;;7.40;1.00;;;;;;5027356;28;19989;-70
2021/10/20 05:55:27;;;;;;;;;;;7.60;1.00;;;;;;5028207;28;19932;-69
2021/10/20 05:57:52;;;;;;;;;;;7.70;1.00;;;;;;5027802;28;19917;-71
2021/10/20 06:00:18;;;;;;;;;;;8.00;1.00;;;;;;5027059;28;19992;-70
2021/10/20 06:02:43;;;;;;;;;;;8.40;1.00;;;;;;5027168;28;19917;-72
2021/10/20 06:05:09;;;;;;;;;;;8.90;1.00;;;;;;5030616;28;19917;-68
2021/10/20 06:07:38;;;;;;;;;;;9.30;1.00;;;;;;5036694;28;19920;-69
2021/10/20 06:10:04;;;;;;;;;;;9.90;1.00;;;;;;5027749;28;19917;-69
2021/10/20 06:12:30;;;;;;;;;;;10.50;1.00;;;;;;5026578;28;19910;-72
2021/10/20 06:14:55;;;;;;;;;;;11.10;1.00;;;;;;5027997;28;19971;-69
2021/10/20 06:17:21;;;;;;;;;;;11.80;99.90;;;;;;5026103;28;19918;-72
2021/10/20 06:19:46;;;;;;;;;;;12.40;99.90;;;;;;5027602;28;19924;-69
2021/10/20 06:22:12;;;;;;;;;;;13.20;2.10;;;;;;5026649;28;19924;-69
2021/10/20 06:24:38;;;;;;;;;;;13.90;1.00;;;;;;5023253;28;19920;-69
2021/10/20 06:27:03;;;;;;;;;;;14.80;99.90;;;;;;5027316;28;19920;-71
2021/10/20 06:29:29;;;;;;;;;;;15.40;1.00;;;;;;5031115;28;19921;-71
2021/10/20 06:31:54;;;;;;;;;;;16.10;1.00;;;;;;5026190;28;19997;-70
2021/10/20 06:34:20;;;;;;;;;;;16.90;1.00;;;;;;5027279;28;19932;-71
2021/10/20 06:36:46;;;;;;;;;;;17.60;1.00;;;;;;5028025;28;19932;-69
2021/10/20 06:39:12;;;;;;;;;;;18.40;99.90;;;;;;5029992;28;19913;-69
2021/10/20 06:41:37;;;;;;;;;;;18.90;99.90;;;;;;5029660;28;19979;-67
2021/10/20 06:44:03;;;;;;;;;;;19.80;99.90;;;;;;5018329;28;19913;-70
2021/10/20 06:46:28;;;;;;;;;;;20.60;99.90;;;;;;5028552;28;19909;-69
2021/10/20 06:48:54;;;;;;;;;;;21.30;99.90;;;;;;5029645;28;19910;-71
2021/10/20 06:51:19;;;;;;;;;;;22.20;99.90;;;;;;5029996;28;19909;-67
2021/10/20 06:53:45;;;;;;;;;;;22.90;99.90;;;;;;5029215;28;19917;-68
2021/10/20 06:56:11;;;;;;;;;;;23.80;99.90;;;;;;5030407;28;19949;-68
2021/10/20 06:58:37;;;;;;;;;;;24.50;99.90;;;;;;5029075;28;19924;-67
2021/10/20 07:01:03;;;;;;;;;;;25.30;99.90;;;;;;5029143;28;19921;-67
2021/10/20 07:03:29;;;;;;;;;;;26.20;99.90;;;;;;5028894;28;19989;-68
2021/10/20 07:05:54;;;;;;;;;;;27.00;99.90;;;;;;5029654;28;20026;-68
2021/10/20 07:08:20;;;;;;;;;;;27.90;99.90;;;;;;5028390;28;20391;-69
2021/10/20 07:10:45;;;;;;;;;;;28.60;99.90;;;;;;5029132;28;20400;-69
2021/10/20 07:13:11;;;;;;;;;;;29.20;99.90;;;;;;5027548;28;19920;-69
2021/10/20 07:15:36;;;;;;;;;;;29.90;99.90;;;;;;5028791;28;20361;-68
2021/10/20 07:18:02;;;;;;;;;;;30.40;99.90;;;;;;5028744;28;19921;-69
2021/10/20 07:20:28;;;;;;;;;;;30.80;99.90;;;;;;5028596;28;19920;-69
2021/10/20 07:22:53;;;;;;;;;;;30.70;99.90;;;;;;5028021;28;19917;-70
2021/10/20 07:25:19;;;;;;;;;;;30.70;99.90;;;;;;5028984;28;19913;-68
2021/10/20 07:27:46;;;;;;;;;;;30.50;99.90;;;;;;5028728;28;20361;-69
2021/10/20 07:30:12;;;;;;;;;;;30.70;99.90;;;;;;5035688;28;20404;-69
2021/10/20 07:32:39;;;;;;;;;;;31.30;99.90;;;;;;5032534;28;19995;-68
2021/10/20 07:35:09;;;;;;;;;;;31.60;99.90;;;;;;5029044;28;20368;-67
2021/10/20 07:37:34;;;;;;;;;;;31.10;99.90;;;;;;5028472;28;20012;-67
2021/10/20 07:40:00;;;;;;;;;;;31.10;99.90;;;;;;5029388;28;20004;-66
2021/10/20 07:42:25;;;;;;;;;;;31.60;99.90;;;;;;5028200;28;19917;-67
2021/10/20 07:44:51;;;;;;;;;;;32.30;99.90;;;;;;5027760;28;20358;-68
2021/10/20 07:47:17;;;;;;;;;;;33.80;99.90;;;;;;5028329;28;20354;-69
2021/10/20 07:49:42;;;;;;;;;;;34.30;99.90;;;;;;5029160;28;19960;-69
2021/10/20 07:52:08;;;;;;;;;;;33.80;99.90;;;;;;5027964;28;19959;-67
2021/10/20 07:54:34;;;;;;;;;;;33.80;99.90;;;;;;5028746;28;19917;-67
2021/10/20 07:56:59;;;;;;;;;;;34.70;99.90;;;;;;5028187;28;19959;-68
2021/10/20 07:59:25;;;;;;;;;;;34.20;99.90;;;;;;5027826;28;19913;-69
2021/10/20 08:01:50;;;;;;;;;;;34.50;99.90;;;;;;5026669;28;19913;-67
2021/10/20 08:04:16;;;;;;;;;;;35.00;99.90;;;;;;5027985;28;20377;-68
2021/10/20 08:06:42;;;;;;;;;;;35.90;99.90;;;;;;5028030;28;19921;-67
2021/10/20 08:09:07;;;;;;;;;;;36.70;99.90;;;;;;5027972;28;19933;-69
2021/10/20 08:11:33;;;;;;;;;;;37.00;96.70;;;;;;5028018;28;19918;-67
2021/10/20 08:13:58;;;;;;;;;;;36.10;94.80;;;;;;5027506;28;19913;-67
2021/10/20 08:16:24;;;;;;;;;;;36.00;90.00;;;;;;5027264;28;19998;-67
2021/10/20 08:18:49;;;;;;;;;;;35.90;79.90;;;;;;5029015;28;19913;-69
2021/10/20 08:21:15;;;;;;;;;;;36.90;73.10;;;;;;5028041;28;19924;-68
2021/10/20 08:23:41;;;;;;;;;;;38.00;66.60;;;;;;5027429;28;19924;-67
2021/10/20 08:26:08;;;;;;;;;;;38.40;59.80;;;;;;5030026;28;20019;-69
2021/10/20 08:28:33;;;;;;;;;;;36.40;52.60;;;;;;5037749;28;19913;-71
2021/10/20 08:30:59;;;;;;;;;;;35.40;49.10;;;;;;5031297;28;20015;-68
2021/10/20 08:33:24;;;;;;;;;;;35.50;47.70;;;;;;5030967;28;20390;-68
2021/10/20 08:35:50;;;;;;;;;;;35.80;44.10;;;;;;5014098;28;20004;-70
2021/10/20 08:38:15;;;;;;;;;;;37.00;43.20;;;;;;5032411;28;20258;-68
2021/10/20 08:40:45;;;;;;;;;;;36.30;38.70;;;;;;5032449;28;19921;-69
2021/10/20 08:43:11;;;;;;;;;;;35.00;36.20;;;;;;5031401;28;20026;-68
2021/10/20 08:45:37;;;;;;;;;;;35.20;34.50;;;;;;5031289;28;19944;-68
2021/10/20 08:48:02;;;;;;;;;;;35.70;32.60;;;;;;5031796;28;19975;-69
2021/10/20 08:50:29;;;;;;;;;;;35.20;32.70;;;;;;5032344;28;20303;-70
2021/10/20 08:52:55;;;;;;;;;;;36.00;30.90;;;;;;5031719;28;20389;-68
2021/10/20 08:55:21;;;;;;;;;;;36.20;27.80;;;;;;5031161;28;19961;-69
2021/10/20 08:57:48;;;;;;;;;;;37.50;25.80;;;;;;5031654;28;19921;-69
2021/10/20 09:00:14;;;;;;;;;;;38.80;25.40;;;;;;5030968;28;20293;-69
2021/10/20 09:02:43;;;;;;;;;;;40.10;23.80;;;;;;5031452;28;19917;-69
2021/10/20 09:05:09;;;;;;;;;;;39.80;20.40;;;;;;5032005;28;19924;-70
2021/10/20 09:07:37;;;;;;;;;;;40.30;18.00;;;;;;5033627;28;19980;-69
2021/10/20 09:10:03;;;;;;;;;;;41.20;15.40;;;;;;5031396;28;19923;-70
2021/10/20 09:12:31;;;;;;;;;;;42.00;12.90;;;;;;5031503;28;19956;-71
2021/10/20 09:15:01;;;;;;;;;;;42.90;10.80;;;;;;5031285;28;19921;-71
2021/10/20 09:17:41;;;;;;;;;;;43.20;7.90;;;;;;5030913;28;19921;-72
2021/10/20 09:20:24;;;;;;;;;;;43.70;4.80;;;;;;5031975;28;20388;-68
2021/10/20 09:22:59;;;;;;;;;;;43.30;1.00;;;;;;5024392;28;19917;-70
2021/10/20 09:25:57;;;;;;;;;;;43.80;1.00;;;;;;5027753;28;19917;-69
2021/10/20 09:28:24;;;;;;;;;;;43.80;1.00;;;;;;5031048;28;19948;-70
2021/10/20 09:30:51;;;;;;;;;;;42.00;1.00;;;;;;5030215;28;19913;-69
2021/10/20 09:33:17;;;;;;;;;;;41.10;1.00;;;;;;5030766;28;19996;-68
2021/10/20 09:35:42;;;;;;;;;;;39.50;1.00;;;;;;5030680;28;20020;-70
2021/10/20 09:38:08;;;;;;;;;;;40.10;1.00;;;;;;5030723;28;19929;-70
2021/10/20 09:40:36;;;;;;;;;;;41.00;1.00;;;;;;5031021;28;19963;-69
2021/10/20 09:43:02;;;;;;;;;;;40.60;1.00;;;;;;5030469;28;19917;-71
2021/10/20 09:45:31;;;;;;;;;;;39.40;1.00;;;;;;5030518;28;20031;-70
2021/10/20 09:48:07;;;;;;;;;;;36.70;1.00;;;;;;5030734;28;19917;-68
2021/10/20 09:50:37;;;;;;;;;;;36.70;1.00;;;;;;5031118;28;19913;-68
2021/10/20 09:53:02;;;;;;;;;;;36.50;1.00;;;;;;5030623;28;19914;-69
2021/10/20 09:55:29;;;;;;;;;;;37.40;1.00;;;;;;5030692;28;19921;-69
2021/10/20 09:58:10;;;;;;;;;;;36.70;1.00;;;;;;5030724;28;19917;-68
2021/10/20 10:00:35;;;;;;;;;;;36.10;1.00;;;;;;5030240;28;19925;-69
2021/10/20 10:03:01;;;;;;;;;;;35.40;1.00;;;;;;5029968;28;20004;-69
2021/10/20 10:05:29;;;;;;;;;;;34.20;1.00;;;;;;5030429;28;19933;-69
2021/10/20 10:07:54;;;;;;;;;;;34.10;1.00;;;;;;5030971;28;19917;-68
2021/10/20 10:10:21;;;;;;;;;;;34.20;1.00;;;;;;5030691;28;20259;-70
2021/10/20 10:12:47;;;;;;;;;;;33.50;1.00;;;;;;5011708;28;19914;-69
2021/10/20 10:15:15;;;;;;;;;;;32.00;1.00;;;;;;5030405;28;19967;-72
2021/10/20 10:17:42;;;;;;;;;;;30.10;1.00;;;;;;5030569;28;20375;-69
2021/10/20 10:20:09;;;;;;;;;;;28.90;1.00;;;;;;5029860;28;20301;-69
2021/10/20 10:22:45;;;;;;;;;;;28.30;1.00;;;;;;5028605;28;19921;-70
2021/10/20 10:25:11;;;;;;;;;;;28.50;4.30;;;;;;5030077;28;20368;-69
2021/10/20 10:27:37;;;;;;;;;;;29.10;4.40;;;;;;5032098;28;20004;-69
2021/10/20 10:30:04;;;;;;;;;;;28.50;6.10;;;;;;5032997;28;20278;-69
2021/10/20 10:32:33;;;;;;;;;;;27.50;7.30;;;;;;5034841;28;20044;-70
2021/10/20 10:35:00;;;;;;;;;;;26.40;8.90;;;;;;5030390;28;20335;-67
2021/10/20 10:37:31;;;;;;;;;;;25.70;11.50;;;;;;5029812;28;20298;-68
2021/10/20 10:40:00;;;;;;;;;;;26.20;14.60;;;;;;5029764;28;19921;-71
2021/10/20 10:42:30;;;;;;;;;;;26.70;16.80;;;;;;5028731;28;20346;-68
2021/10/20 10:45:07;;;;;;;;;;;27.20;17.70;;;;;;5028726;28;19920;-69
2021/10/20 10:47:33;;;;;;;;;;;27.70;28.70;;;;;;5027955;28;20464;-69
2021/10/20 10:49:58;;;;;;;;;;;27.90;19.80;;;;;;5028884;28;20012;-69
2021/10/20 10:52:39;;;;;;;;;;;27.40;20.40;;;;;;5027401;28;20338;-69
2021/10/20 10:55:12;;;;;;;;;;;26.90;20.70;;;;;;5029240;28;19958;-69
2021/10/20 10:57:53;;;;;;;;;;;26.50;22.80;;;;;;5027665;28;19920;-69
2021/10/20 11:00:18;;;;;;;;;;;26.30;24.50;;;;;;5028133;28;19917;-68
2021/10/20 11:02:51;;;;;;;;;;;26.00;25.80;;;;;;5028831;28;19921;-70
2021/10/20 11:05:27;;;;;;;;;;;25.70;27.60;;;;;;5029242;28;19913;-68
2021/10/20 11:07:58;;;;;;;;;;;25.40;29.30;;;;;;5029045;28;19917;-70
2021/10/20 11:10:23;;;;;;;;;;;25.60;31.90;;;;;;5029857;28;19913;-69
2021/10/20 11:12:49;;;;;;;;;;;26.00;34.40;;;;;;5028481;28;20425;-69
2021/10/20 11:15:16;;;;;;;;;;;26.40;34.80;;;;;;5028557;28;20302;-70
2021/10/20 11:17:41;;;;;;;;;;;26.50;48.40;;;;;;5028770;28;19960;-68
2021/10/20 11:20:07;;;;;;;;;;;26.60;36.50;;;;;;5028930;28;19963;-71
2021/10/20 11:22:33;;;;;;;;;;;26.70;37.10;;;;;;5028282;28;19913;-69
2021/10/20 11:24:59;;;;;;;;;;;26.70;39.00;;;;;;5029655;28;20296;-68
2021/10/20 11:27:25;;;;;;;;;;;26.50;40.10;;;;;;5029549;28;19971;-68
2021/10/20 11:29:52;;;;;;;;;;;26.20;40.80;;;;;;5032825;28;20463;-70
2021/10/20 11:32:18;;;;;;;;;;;26.10;41.30;;;;;;5027702;28;20358;-68
2021/10/20 11:34:45;;;;;;;;;;;26.00;42.40;;;;;;5029290;28;19913;-68
2021/10/20 11:37:12;;;;;;;;;;;25.80;43.40;;;;;;5028999;28;19947;-69
2021/10/20 11:39:38;;;;;;;;;;;25.60;44.30;;;;;;5029346;28;19928;-67
2021/10/20 11:42:06;;;;;;;;;;;25.40;45.90;;;;;;5028313;28;19917;-66
2021/10/20 11:44:33;;;;;;;;;;;25.00;46.20;;;;;;5027864;28;19917;-67
2021/10/20 11:46:59;;;;;;;;;;;24.70;48.30;;;;;;5027498;28;20003;-67
2021/10/20 11:49:25;;;;;;;;;;;24.40;49.80;;;;;;5029232;28;20348;-69
2021/10/20 11:51:51;;;;;;;;;;;24.30;51.00;;;;;;5010139;28;19948;-67
2021/10/20 11:54:18;;;;;;;;;;;24.50;53.30;;;;;;5028181;28;19941;-69
2021/10/20 11:56:50;;;;;;;;;;;24.40;54.20;;;;;;5034509;28;20379;-68
2021/10/20 11:59:20;;;;;;;;;;;24.20;54.90;;;;;;5021870;28;19924;-68
2021/10/20 12:01:47;;;;;;;;;;;24.00;55.70;;;;;;5027507;28;19917;-69
2021/10/20 12:04:12;;;;;;;;;;;23.60;57.30;;;;;;5028352;28;19936;-68
2021/10/20 12:06:38;;;;;;;;;;;23.30;58.80;;;;;;5041610;28;19920;-68
2021/10/20 12:09:05;;;;;;;;;;;22.70;61.10;;;;;;5018687;28;20365;-68
2021/10/20 12:11:31;;;;;;;;;;;22.40;63.90;;;;;;5028904;28;19917;-68
2021/10/20 12:14:04;;;;;;;;;;;22.20;67.90;;;;;;5027754;28;20016;-68
2021/10/20 12:16:30;;;;;;;;;;;22.00;71.50;;;;;;5027636;28;20007;-68
2021/10/20 12:18:56;;;;;;;;;;;21.80;75.40;;;;;;5027960;28;20017;-70
2021/10/20 12:21:26;;;;;;;;;;;21.60;79.20;;;;;;5028724;28;19924;-69
2021/10/20 12:23:51;;;;;;;;;;;21.40;82.50;;;;;;5027889;28;19917;-68
2021/10/20 12:26:17;;;;;;;;;;;21.00;85.60;;;;;;5028426;28;19917;-68
2021/10/20 12:28:44;;;;;;;;;;;20.90;90.20;;;;;;5030107;28;19940;-67
2021/10/20 12:31:11;;;;;;;;;;;20.80;91.60;;;;;;5027413;28;19923;-68
2021/10/20 12:33:37;;;;;;;;;;;20.80;93.70;;;;;;5026792;28;19913;-69
2021/10/20 12:36:04;;;;;;;;;;;21.00;95.50;;;;;;5028061;28;20353;-69
2021/10/20 12:38:29;;;;;;;;;;;21.20;97.20;;;;;;5028916;28;19920;-68
2021/10/20 12:40:55;;;;;;;;;;;21.30;99.10;;;;;;5027891;28;20326;-68
2021/10/20 12:43:21;;;;;;;;;;;21.30;99.40;;;;;;5027528;28;20185;-70
2021/10/20 12:45:48;;;;;;;;;;;21.30;99.90;;;;;;5027357;28;20007;-71
2021/10/20 12:48:14;;;;;;;;;;;21.70;99.90;;;;;;5028042;28;19971;-67
2021/10/20 12:50:40;;;;;;;;;;;22.10;99.90;;;;;;5028172;28;19917;-68
2021/10/20 12:53:09;;;;;;;;;;;22.40;99.90;;;;;;5027284;28;19913;-68
2021/10/20 12:55:38;;;;;;;;;;;22.40;99.90;;;;;;5025256;28;19913;-68
2021/10/20 12:58:03;;;;;;;;;;;22.40;99.90;;;;;;5027522;28;20000;-68
2021/10/20 13:00:30;;;;;;;;;;;22.60;99.90;;;;;;5027138;28;20038;-71
2021/10/20 13:02:57;;;;;;;;;;;22.60;99.90;;;;;;5025825;28;19947;-68
2021/10/20 13:05:23;;;;;;;;;;;22.60;99.90;;;;;;5026481;28;19921;-68
2021/10/20 13:07:48;;;;;;;;;;;22.40;99.90;;;;;;5027982;28;20283;-68
2021/10/20 13:10:15;;;;;;;;;;;22.10;99.90;;;;;;5028571;28;20008;-68
2021/10/20 13:12:43;;;;;;;;;;;21.70;99.90;;;;;;5028825;28;20064;-68
2021/10/20 13:15:09;;;;;;;;;;;21.30;99.90;;;;;;5030797;28;20310;-67
2021/10/20 13:17:38;;;;;;;;;;;21.10;99.90;;;;;;5030392;28;19913;-71
2021/10/20 13:20:05;;;;;;;;;;;21.10;99.90;;;;;;5031344;28;19924;-69
2021/10/20 13:22:31;;;;;;;;;;;21.00;99.90;;;;;;5030527;28;19960;-70
2021/10/20 13:24:56;;;;;;;;;;;20.90;99.90;;;;;;5031321;28;19917;-69
2021/10/20 13:27:22;;;;;;;;;;;21.00;99.90;;;;;;5030999;28;19913;-69
2021/10/20 13:29:47;;;;;;;;;;;21.00;99.90;;;;;;5034215;28;19971;-69
2021/10/20 13:32:13;;;;;;;;;;;21.20;99.90;;;;;;5038094;28;19917;-70
2021/10/20 13:34:38;;;;;;;;;;;21.40;99.90;;;;;;5030598;28;19925;-69
2021/10/20 13:37:04;;;;;;;;;;;21.60;99.90;;;;;;5030887;28;19982;-73
2021/10/20 13:39:29;;;;;;;;;;;21.70;99.90;;;;;;5030689;28;20036;-71
2021/10/20 13:41:55;;;;;;;;;;;21.90;99.90;;;;;;5030243;28;20015;-69
2021/10/20 13:44:20;;;;;;;;;;;22.10;99.90;;;;;;5029835;28;19927;-71
2021/10/20 13:46:47;;;;;;;;;;;22.30;99.90;;;;;;5030154;28;19968;-71
2021/10/20 13:49:13;;;;;;;;;;;22.50;99.90;;;;;;5030815;28;19913;-70
2021/10/20 13:51:38;;;;;;;;;;;22.40;99.90;;;;;;5031087;28;20472;-71
2021/10/20 13:54:04;;;;;;;;;;;22.10;99.90;;;;;;5029909;28;19913;-69
2021/10/20 13:56:31;;;;;;;;;;;21.80;99.90;;;;;;5030650;28;19914;-70
2021/10/20 13:58:57;;;;;;;;;;;21.50;99.90;;;;;;5029806;28;19924;-68
2021/10/20 14:01:23;;;;;;;;;;;21.50;99.90;;;;;;5029495;28;19917;-71
2021/10/20 14:03:48;;;;;;;;;;;21.40;99.90;;;;;;5030426;28;19913;-69
2021/10/20 14:06:16;;;;;;;;;;;21.30;99.90;;;;;;5030167;28;20326;-68
2021/10/20 14:08:42;;;;;;;;;;;21.10;99.90;;;;;;5030659;28;19917;-69
2021/10/20 14:11:08;;;;;;;;;;;21.00;99.90;;;;;;5030539;28;19968;-69
2021/10/20 14:13:33;;;;;;;;;;;20.90;99.90;;;;;;5028711;28;19928;-68
2021/10/20 14:15:59;;;;;;;;;;;20.90;99.90;;;;;;5029832;28;20385;-69
2021/10/20 14:18:28;;;;;;;;;;;20.90;99.90;;;;;;5030161;28;20003;-69
2021/10/20 14:20:53;;;;;;;;;;;20.90;99.90;;;;;;5030339;28;19952;-70
2021/10/20 14:23:19;;;;;;;;;;;20.90;99.90;;;;;;5028521;28;19952;-69